createdAt,value
2019-03-21T00:01:41.269Z,6.00
2019-03-21T00:04:13.935Z,4.00
2019-03-21T00:06:44.638Z,6.00
2019-03-21T00:09:17.136Z,3.00
2019-03-21T00:12:09.181Z,4.00
2019-03-21T00:14:48.681Z,3.00
2019-03-21T00:17:37.244Z,3.25
2019-03-21T00:20:16.073Z,6.75
2019-03-21T00:22:46.575Z,5.50
2019-03-21T00:25:19.524Z,4.00
2019-03-21T00:27:50.030Z,6.75
2019-03-21T00:30:22.877Z,6.00
2019-03-21T00:32:53.250Z,6.75
2019-03-21T00:35:23.436Z,6.00
2019-03-21T00:37:53.864Z,8.00
2019-03-21T00:40:32.741Z,6.00
2019-03-21T00:43:05.133Z,2.50
2019-03-21T00:45:35.214Z,3.50
2019-03-21T00:48:06.595Z,7.00
2019-03-21T00:50:36.874Z,3.00
2019-03-21T00:53:06.861Z,6.50
2019-03-21T00:55:42.484Z,6.50
2019-03-21T00:58:12.673Z,4.50
2019-03-21T01:00:49.108Z,3.50
2019-03-21T01:03:19.657Z,4.00
2019-03-21T01:05:50.160Z,6.00
2019-03-21T01:08:20.335Z,3.50
2019-03-21T01:10:51.234Z,1.00
2019-03-21T01:13:21.541Z,5.00
2019-03-21T01:15:51.896Z,3.00
2019-03-21T01:18:22.500Z,4.00
2019-03-21T01:20:52.724Z,3.00
2019-03-21T01:23:23.474Z,3.00
2019-03-21T01:26:02.874Z,5.50
2019-03-21T01:28:33.263Z,3.50
2019-03-21T01:31:03.470Z,7.00
2019-03-21T01:33:33.766Z,3.00
2019-03-21T01:36:04.806Z,6.00
2019-03-21T01:38:34.955Z,6.25
2019-03-21T01:41:08.609Z,5.00
2019-03-21T01:43:38.717Z,8.50
2019-03-21T01:46:12.246Z,5.25
2019-03-21T01:48:43.097Z,3.00
2019-03-21T01:51:13.513Z,3.50
2019-03-21T01:53:44.648Z,6.00
2019-03-21T01:56:14.819Z,3.25
2019-03-21T01:58:44.878Z,6.00
2019-03-21T02:01:15.654Z,4.00
2019-03-21T02:03:45.757Z,5.50
2019-03-21T02:06:16.002Z,7.00
2019-03-21T02:08:46.193Z,4.00
2019-03-21T02:11:16.429Z,6.75
2019-03-21T02:13:47.274Z,6.00
2019-03-21T02:16:17.515Z,6.50
2019-03-21T02:18:47.567Z,5.75
2019-03-21T02:21:18.320Z,6.25
2019-03-21T02:23:48.846Z,6.50
2019-03-21T02:26:19.012Z,5.50
2019-03-21T02:28:49.526Z,4.00
2019-03-21T02:31:20.140Z,6.25
2019-03-21T02:33:50.398Z,4.00
2019-03-21T02:36:20.872Z,6.25
2019-03-21T02:38:51.122Z,5.00
2019-03-21T02:41:21.258Z,6.75
2019-03-21T02:43:51.574Z,5.50
2019-03-21T02:46:22.482Z,9.00
2019-03-21T02:48:53.070Z,9.00
2019-03-21T02:51:23.368Z,6.75
2019-03-21T02:53:53.891Z,6.50
2019-03-21T02:56:26.012Z,6.50
2019-03-21T02:58:56.637Z,6.25
2019-03-21T03:01:26.484Z,6.00
2019-03-21T03:03:56.576Z,7.00
2019-03-21T03:06:26.738Z,3.75
2019-03-21T03:08:57.051Z,5.00
2019-03-21T03:11:26.976Z,6.00
2019-03-21T03:13:57.207Z,4.25
2019-03-21T03:16:28.026Z,6.00
2019-03-21T03:18:58.263Z,4.25
2019-03-21T03:21:28.558Z,3.00
2019-03-21T03:23:59.144Z,7.00
2019-03-21T03:26:30.133Z,7.00
2019-03-21T03:29:00.689Z,6.50
2019-03-21T03:31:30.834Z,9.00
2019-03-21T03:34:00.819Z,6.25
2019-03-21T03:36:32.652Z,4.75
2019-03-21T03:39:03.058Z,7.25
2019-03-21T03:41:33.318Z,8.00
2019-03-21T03:44:03.631Z,3.00
2019-03-21T03:46:33.652Z,7.00
2019-03-21T03:49:03.973Z,5.75
2019-03-21T03:51:34.823Z,4.00
2019-03-21T03:54:05.646Z,4.50
2019-03-21T03:56:36.506Z,3.00
2019-03-21T03:59:08.966Z,4.00
2019-03-21T04:01:39.195Z,7.00
2019-03-21T04:04:09.303Z,7.00
2019-03-21T04:06:39.543Z,4.25
2019-03-21T04:09:10.535Z,3.50
2019-03-21T04:11:40.599Z,7.00
2019-03-21T04:14:10.978Z,9.00
2019-03-21T04:16:41.874Z,4.00
2019-03-21T04:19:12.017Z,9.00
2019-03-21T04:21:42.513Z,6.00
2019-03-21T04:24:12.605Z,2.50
2019-03-21T04:26:42.837Z,6.75
2019-03-21T04:29:13.267Z,6.75
2019-03-21T04:31:43.673Z,6.25
2019-03-21T04:34:14.060Z,8.50
2019-03-21T04:36:44.814Z,9.00
2019-03-21T04:39:15.313Z,7.75
2019-03-21T04:41:46.143Z,9.00
2019-03-21T04:44:16.363Z,7.25
2019-03-21T04:46:46.698Z,6.00
2019-03-21T04:49:17.986Z,6.75
2019-03-21T04:51:48.147Z,5.50
2019-03-21T04:54:18.310Z,9.50
2019-03-21T04:56:48.431Z,8.50
2019-03-21T04:59:18.816Z,7.50
2019-03-21T05:01:49.432Z,3.75
2019-03-21T05:04:20.145Z,3.75
2019-03-21T05:06:50.660Z,6.75
2019-03-21T05:09:20.940Z,6.75
2019-03-21T05:11:51.743Z,4.00
2019-03-21T05:14:22.377Z,7.00
2019-03-21T05:16:52.478Z,7.00
2019-03-21T05:19:22.731Z,6.25
2019-03-21T05:21:52.814Z,8.50
2019-03-21T05:24:23.017Z,8.50
2019-03-21T05:26:53.395Z,6.50
2019-03-21T05:29:23.571Z,9.25
2019-03-21T05:31:53.976Z,8.00
2019-03-21T05:34:24.662Z,4.00
2019-03-21T05:36:54.983Z,6.00
2019-03-21T05:39:25.957Z,9.50
2019-03-21T05:41:56.408Z,7.00
2019-03-21T05:44:34.492Z,11.50
2019-03-21T05:47:05.252Z,9.75
2019-03-21T05:49:35.374Z,7.00
2019-03-21T05:52:05.704Z,9.00
2019-03-21T05:54:36.112Z,9.75
2019-03-21T05:57:06.494Z,6.00
2019-03-21T05:59:36.916Z,6.00
2019-03-21T06:02:07.418Z,3.00
2019-03-21T06:04:38.072Z,6.75
2019-03-21T06:07:16.681Z,4.50
2019-03-21T06:09:46.594Z,1.50
2019-03-21T06:12:16.730Z,4.00
2019-03-21T06:14:49.582Z,4.50
2019-03-21T06:17:19.630Z,4.50
2019-03-21T06:20:04.236Z,3.50
2019-03-21T06:22:46.022Z,5.00
2019-03-21T06:25:30.805Z,0.75
2019-03-21T06:28:00.761Z,3.00
2019-03-21T06:30:31.153Z,2.00
2019-03-21T06:33:01.914Z,2.50
2019-03-21T06:35:32.734Z,3.00
2019-03-21T06:38:02.987Z,1.50
2019-03-21T06:40:33.212Z,3.50
2019-03-21T06:43:03.697Z,3.00
2019-03-21T06:45:33.930Z,4.00
2019-03-21T06:48:04.062Z,3.25
2019-03-21T06:50:34.361Z,3.75
2019-03-21T06:53:04.698Z,0.50
2019-03-21T06:55:35.333Z,2.50
2019-03-21T06:58:05.962Z,6.00
2019-03-21T07:00:36.708Z,0.00
2019-03-21T07:03:07.038Z,5.50
2019-03-21T07:05:37.958Z,2.50
2019-03-21T07:08:08.397Z,2.50
2019-03-21T07:10:38.639Z,1.00
2019-03-21T07:13:08.722Z,1.00
2019-03-21T07:15:38.942Z,1.00
2019-03-21T07:18:09.307Z,1.00
2019-03-21T07:20:39.414Z,3.00
2019-03-21T07:23:09.806Z,3.00
2019-03-21T07:25:40.524Z,2.50
2019-03-21T07:28:11.410Z,2.50
2019-03-21T07:30:41.818Z,3.50
2019-03-21T07:33:12.150Z,1.00
2019-03-21T07:35:43.946Z,3.75
2019-03-21T07:38:14.035Z,0.00
2019-03-21T07:40:44.966Z,0.75
2019-03-21T07:43:15.478Z,3.75
2019-03-21T07:45:45.622Z,3.00
2019-03-21T07:48:15.958Z,3.00
2019-03-21T07:50:46.244Z,1.00
2019-03-21T07:53:16.266Z,0.50
2019-03-21T07:55:46.616Z,1.00
2019-03-21T07:58:16.705Z,1.00
2019-03-21T08:00:47.354Z,3.00
2019-03-21T08:03:17.478Z,3.00
2019-03-21T08:05:48.302Z,3.00
2019-03-21T08:08:19.534Z,0.75
2019-03-21T08:10:50.086Z,1.00
2019-03-21T08:13:20.810Z,0.00
2019-03-21T08:15:51.425Z,1.50
2019-03-21T08:18:21.590Z,2.00
2019-03-21T08:20:57.243Z,1.00
2019-03-21T08:23:23.954Z,3.00
2019-03-21T08:25:54.202Z,3.25
2019-03-21T08:28:24.483Z,3.50
2019-03-21T08:31:00.261Z,3.75
2019-03-21T08:33:30.434Z,3.25
2019-03-21T08:36:01.217Z,3.25
2019-03-21T08:38:31.638Z,1.00
2019-03-21T08:41:02.041Z,4.50
2019-03-21T08:43:32.759Z,3.75
2019-03-21T08:46:03.017Z,1.00
2019-03-21T08:48:33.231Z,4.00
2019-03-21T08:51:08.184Z,5.00
2019-03-21T08:53:36.043Z,5.50
2019-03-21T08:56:06.249Z,3.00
2019-03-21T08:58:36.598Z,4.00
2019-03-21T09:01:07.117Z,3.00
2019-03-21T09:03:37.241Z,1.50
2019-03-21T09:06:07.447Z,3.00
2019-03-21T09:08:38.004Z,2.50
2019-03-21T09:11:08.318Z,2.50
2019-03-21T09:13:38.413Z,4.00
2019-03-21T09:16:10.895Z,2.50
2019-03-21T09:18:41.370Z,3.50
2019-03-21T09:21:19.590Z,3.25
2019-03-21T09:23:43.770Z,4.00
2019-03-21T09:26:13.841Z,3.25
2019-03-21T09:28:44.650Z,4.00
2019-03-21T09:31:14.899Z,3.75
2019-03-21T09:33:45.124Z,1.50
2019-03-21T09:36:15.326Z,1.50
2019-03-21T09:38:45.579Z,3.00
2019-03-21T09:41:16.099Z,1.00
2019-03-21T09:43:46.321Z,0.50
2019-03-21T09:46:17.171Z,3.25
2019-03-21T09:48:47.762Z,3.00
2019-03-21T09:51:17.880Z,2.50
2019-03-21T09:53:48.145Z,6.75
2019-03-21T09:56:18.325Z,3.00
2019-03-21T09:58:48.674Z,3.00
2019-03-21T10:01:18.781Z,5.00
2019-03-21T10:03:48.994Z,3.75
2019-03-21T10:06:19.311Z,2.50
2019-03-21T10:08:49.882Z,4.00
2019-03-21T10:11:20.287Z,6.50
2019-03-21T10:13:50.485Z,4.00
2019-03-21T10:16:20.733Z,3.75
2019-03-21T10:18:51.058Z,1.00
2019-03-21T10:21:21.497Z,4.50
2019-03-21T10:23:51.717Z,3.25
2019-03-21T10:26:21.930Z,4.50
2019-03-21T10:28:52.156Z,4.00
2019-03-21T10:31:22.770Z,2.00
2019-03-21T10:33:52.910Z,0.00
2019-03-21T10:36:23.725Z,3.00
2019-03-21T10:38:53.954Z,4.00
2019-03-21T10:41:24.187Z,4.00
2019-03-21T10:43:58.391Z,3.00
2019-03-21T10:46:28.999Z,3.00
2019-03-21T10:48:59.253Z,3.25
2019-03-21T10:51:29.391Z,3.50
2019-03-21T10:53:59.567Z,4.75
2019-03-21T10:56:29.812Z,3.75
2019-03-21T10:59:00.355Z,3.00
2019-03-21T11:01:30.721Z,3.25
2019-03-21T11:04:01.169Z,3.50
2019-03-21T11:06:32.091Z,5.50
2019-03-21T11:09:02.267Z,4.00
2019-03-21T11:11:32.759Z,4.00
2019-03-21T11:14:03.510Z,4.00
2019-03-21T11:16:33.833Z,4.50
2019-03-21T11:19:04.406Z,3.75
2019-03-21T11:21:34.494Z,3.75
2019-03-21T11:24:04.810Z,3.50
2019-03-21T11:26:35.317Z,6.00
2019-03-21T11:29:06.066Z,4.00
2019-03-21T11:31:36.265Z,6.00
2019-03-21T11:34:06.898Z,3.00
2019-03-21T11:36:38.628Z,2.00
2019-03-21T11:39:09.386Z,4.25
2019-03-21T11:41:39.733Z,3.25
2019-03-21T11:44:09.965Z,0.00
2019-03-21T11:46:40.408Z,1.00
2019-03-21T11:49:10.919Z,3.00
2019-03-21T11:51:41.292Z,2.50
2019-03-21T11:54:11.367Z,2.50
2019-03-21T11:56:42.179Z,3.00
2019-03-21T11:59:12.438Z,1.00
2019-03-21T12:01:43.646Z,3.50
2019-03-21T12:04:13.893Z,5.50
2019-03-21T12:06:43.862Z,6.00
2019-03-21T12:09:13.876Z,5.00
2019-03-21T12:11:44.723Z,4.50
2019-03-21T12:14:14.999Z,7.00
2019-03-21T12:16:45.057Z,8.50
2019-03-21T12:19:15.383Z,8.50
2019-03-21T12:21:45.991Z,10.50
2019-03-21T12:24:16.283Z,4.00
2019-03-21T12:26:46.250Z,8.00
2019-03-21T12:29:17.622Z,3.50
2019-03-21T12:31:47.679Z,9.00
2019-03-21T12:34:17.838Z,7.75
2019-03-21T12:36:48.163Z,9.00
2019-03-21T12:39:19.028Z,6.00
2019-03-21T12:41:49.219Z,7.00
2019-03-21T12:44:19.595Z,3.75
2019-03-21T12:46:49.719Z,4.00
2019-03-21T12:49:20.213Z,5.50
2019-03-21T12:51:50.437Z,9.25
2019-03-21T12:54:20.516Z,9.00
2019-03-21T12:56:52.949Z,8.50
2019-03-21T12:59:22.681Z,5.50
2019-03-21T13:01:52.826Z,11.50
2019-03-21T13:04:22.958Z,9.75
2019-03-21T13:06:53.426Z,0.00
2019-03-21T13:09:24.698Z,11.75
2019-03-21T13:11:54.847Z,7.00
2019-03-21T13:14:25.626Z,3.75
2019-03-21T13:16:56.125Z,6.75
2019-03-21T13:19:26.204Z,6.50
2019-03-21T13:21:56.492Z,4.50
2019-03-21T13:24:27.110Z,8.50
2019-03-21T13:26:57.083Z,9.00
2019-03-21T13:29:27.024Z,8.25
2019-03-21T13:31:57.619Z,9.00
2019-03-21T13:34:27.900Z,4.50
2019-03-21T13:36:58.103Z,6.00
2019-03-21T13:39:29.510Z,10.00
2019-03-21T13:41:59.762Z,6.25
2019-03-21T13:44:29.996Z,12.00
2019-03-21T13:47:00.913Z,5.25
2019-03-21T13:49:31.097Z,6.00
2019-03-21T13:52:04.690Z,9.00
2019-03-21T13:54:33.990Z,5.00
2019-03-21T13:57:04.242Z,9.25
2019-03-21T13:59:34.415Z,8.50
2019-03-21T14:02:04.487Z,7.50
2019-03-21T14:04:34.443Z,6.50
2019-03-21T14:07:04.443Z,6.00
2019-03-21T14:09:37.481Z,8.50
2019-03-21T14:12:07.554Z,9.25
2019-03-21T14:14:38.376Z,9.00
2019-03-21T14:17:08.698Z,9.75
2019-03-21T14:19:38.969Z,5.50
2019-03-21T14:22:09.161Z,10.00
2019-03-21T14:24:39.280Z,9.00
2019-03-21T14:27:09.586Z,7.50
2019-03-21T14:29:40.042Z,9.75
2019-03-21T14:32:10.553Z,6.75
2019-03-21T14:34:40.480Z,9.25
2019-03-21T14:37:10.400Z,11.00
2019-03-21T14:39:40.543Z,10.00
2019-03-21T14:42:10.631Z,6.50
2019-03-21T14:44:41.205Z,6.50
2019-03-21T14:47:11.586Z,10.00
2019-03-21T14:49:42.738Z,8.50
2019-03-21T14:52:12.592Z,8.50
2019-03-21T14:54:43.563Z,9.75
2019-03-21T14:57:13.701Z,7.00
2019-03-21T14:59:44.798Z,6.25
2019-03-21T15:02:15.055Z,9.00
2019-03-21T15:04:45.824Z,5.00
2019-03-21T15:07:18.580Z,9.00
2019-03-21T15:09:48.167Z,9.50
2019-03-21T15:12:18.494Z,9.50
2019-03-21T15:14:48.628Z,9.75
2019-03-21T15:17:18.833Z,8.00
2019-03-21T15:19:48.872Z,9.00
2019-03-21T15:22:19.010Z,9.50
2019-03-21T15:24:49.006Z,5.50
2019-03-21T15:27:19.225Z,10.00
2019-03-21T15:29:49.393Z,6.75
2019-03-21T15:32:19.959Z,5.75
2019-03-21T15:34:50.100Z,7.50
2019-03-21T15:37:20.425Z,10.25
2019-03-21T15:39:50.829Z,7.25
2019-03-21T15:42:21.069Z,6.25
2019-03-21T15:44:51.738Z,7.25
2019-03-21T15:47:21.918Z,8.50
2019-03-21T15:49:52.432Z,9.00
2019-03-21T15:52:22.666Z,10.50
2019-03-21T15:54:52.791Z,7.50
2019-03-21T15:57:24.298Z,10.75
2019-03-21T15:59:55.390Z,9.50
2019-03-21T16:02:25.600Z,9.75
2019-03-21T16:04:55.676Z,6.00
2019-03-21T16:07:26.955Z,8.00
2019-03-21T16:09:57.294Z,10.50
2019-03-21T16:12:27.651Z,5.00
2019-03-21T16:14:57.652Z,9.00
2019-03-21T16:17:28.168Z,11.75
2019-03-21T16:19:58.393Z,5.75
2019-03-21T16:22:28.624Z,9.25
2019-03-21T16:24:58.920Z,10.00
2019-03-21T16:27:29.043Z,7.00
2019-03-21T16:29:59.292Z,7.50
2019-03-21T16:32:29.543Z,9.25
2019-03-21T16:34:59.719Z,7.00
2019-03-21T16:37:29.941Z,5.50
2019-03-21T16:40:00.151Z,8.50
2019-03-21T16:42:31.287Z,8.50
2019-03-21T16:45:01.621Z,8.00
2019-03-21T16:47:32.055Z,10.00
2019-03-21T16:50:02.282Z,12.00
2019-03-21T16:52:32.498Z,9.25
2019-03-21T16:55:02.815Z,11.00
2019-03-21T16:57:33.028Z,11.50
2019-03-21T17:00:05.482Z,9.00
2019-03-21T17:02:35.929Z,8.50
2019-03-21T17:05:07.455Z,9.75
2019-03-21T17:07:37.891Z,6.25
2019-03-21T17:10:10.325Z,12.25
2019-03-21T17:12:41.301Z,6.25
2019-03-21T17:15:12.670Z,9.75
2019-03-21T17:17:42.744Z,8.00
2019-03-21T17:20:13.243Z,8.50
2019-03-21T17:22:44.060Z,8.50
2019-03-21T17:25:14.299Z,10.25
2019-03-21T17:27:44.902Z,9.50
2019-03-21T17:30:16.790Z,9.50
2019-03-21T17:32:46.802Z,8.50
2019-03-21T17:35:17.207Z,7.50
2019-03-21T17:37:47.355Z,10.00
2019-03-21T17:40:17.552Z,12.50
2019-03-21T17:42:48.283Z,10.50
2019-03-21T17:45:19.230Z,9.50
2019-03-21T17:47:49.665Z,10.50
2019-03-21T17:50:19.973Z,7.25
2019-03-21T17:52:50.668Z,6.00
2019-03-21T17:55:20.642Z,8.50
2019-03-21T17:57:50.877Z,9.75
2019-03-21T18:00:37.467Z,9.50
2019-03-21T18:03:07.879Z,9.00
2019-03-21T18:05:38.091Z,7.50
2019-03-21T18:08:09.046Z,9.25
2019-03-21T18:10:39.160Z,9.75
2019-03-21T18:13:09.616Z,0.50
2019-03-21T18:15:40.124Z,6.50
2019-03-21T18:18:10.239Z,9.75
2019-03-21T18:20:40.371Z,9.50
2019-03-21T18:23:10.613Z,9.75
2019-03-21T18:25:40.973Z,10.00
2019-03-21T18:28:11.147Z,11.00
2019-03-21T18:30:41.644Z,15.00
2019-03-21T18:33:12.177Z,9.75
2019-03-21T18:35:43.418Z,12.25
2019-03-21T18:38:14.083Z,5.00
2019-03-21T18:40:45.969Z,7.50
2019-03-21T18:43:16.440Z,12.50
2019-03-21T18:45:46.980Z,9.25
2019-03-21T18:48:17.202Z,11.00
2019-03-21T18:50:47.431Z,13.50
2019-03-21T18:53:17.670Z,11.00
2019-03-21T18:55:47.752Z,5.00
2019-03-21T18:58:18.401Z,9.00
2019-03-21T19:00:48.534Z,9.00
2019-03-21T19:03:18.720Z,9.50
2019-03-21T19:05:49.248Z,9.25
2019-03-21T19:08:19.833Z,7.00
2019-03-21T19:10:50.005Z,9.50
2019-03-21T19:13:20.838Z,5.50
2019-03-21T19:15:51.486Z,9.25
2019-03-21T19:18:21.851Z,4.75
2019-03-21T19:20:51.833Z,9.00
2019-03-21T19:23:21.759Z,6.00
2019-03-21T19:25:51.836Z,8.00
2019-03-21T19:28:22.185Z,9.00
2019-03-21T19:30:52.812Z,8.50
2019-03-21T19:33:23.071Z,6.00
2019-03-21T19:35:53.548Z,7.50
2019-03-21T19:38:24.107Z,9.50
2019-03-21T19:40:54.305Z,8.25
2019-03-21T19:43:24.745Z,11.25
2019-03-21T19:45:55.082Z,8.75
2019-03-21T19:48:25.733Z,4.50
2019-03-21T19:50:55.706Z,8.00
2019-03-21T19:53:28.814Z,9.75
2019-03-21T19:56:07.969Z,5.00
2019-03-21T19:58:30.074Z,8.50
2019-03-21T20:01:00.288Z,9.25
2019-03-21T20:03:30.704Z,6.75
2019-03-21T20:06:00.904Z,4.50
2019-03-21T20:08:32.173Z,9.00
2019-03-21T20:11:02.349Z,8.50
2019-03-21T20:13:33.394Z,4.00
2019-03-21T20:16:04.069Z,6.00
2019-03-21T20:18:34.557Z,3.00
2019-03-21T20:21:04.977Z,7.00
2019-03-21T20:23:35.800Z,5.50
2019-03-21T20:26:06.033Z,7.75
2019-03-21T20:28:36.520Z,6.00
2019-03-21T20:31:07.216Z,4.00
2019-03-21T20:33:37.404Z,4.00
2019-03-21T20:36:07.994Z,9.25
2019-03-21T20:38:38.498Z,6.00
2019-03-21T20:41:08.645Z,8.00
2019-03-21T20:43:39.217Z,5.50
2019-03-21T20:46:09.445Z,6.25
2019-03-21T20:48:38.127Z,6.75
2019-03-21T20:51:08.861Z,6.75
2019-03-21T20:53:38.958Z,8.50
2019-03-21T20:56:10.012Z,5.00
2019-03-21T20:58:39.992Z,9.25
2019-03-21T21:01:10.631Z,6.25
2019-03-21T21:03:41.515Z,7.00
2019-03-21T21:06:11.821Z,4.00
2019-03-21T21:08:42.275Z,3.75
2019-03-21T21:11:13.189Z,4.50
2019-03-21T21:13:43.713Z,6.50
2019-03-21T21:16:13.897Z,5.50
2019-03-21T21:18:44.253Z,6.25
2019-03-21T21:21:14.151Z,7.00
2019-03-21T21:23:44.837Z,6.00
2019-03-21T21:26:15.736Z,4.00
2019-03-21T21:28:46.288Z,5.00
2019-03-21T21:31:17.014Z,6.75
2019-03-21T21:33:47.100Z,11.00
2019-03-21T21:36:21.971Z,6.75
2019-03-21T21:38:49.544Z,1.00
2019-03-21T21:41:19.597Z,6.75
2019-03-21T21:43:50.142Z,9.00
2019-03-21T21:46:20.356Z,6.00
2019-03-21T21:48:50.975Z,7.00
2019-03-21T21:51:21.500Z,7.00
2019-03-21T21:53:51.806Z,6.00
2019-03-21T21:56:21.947Z,7.50
2019-03-21T21:58:52.321Z,6.50
2019-03-21T22:01:22.485Z,6.25
2019-03-21T22:04:03.873Z,7.00
2019-03-21T22:06:24.445Z,4.50
2019-03-21T22:08:54.683Z,6.00
2019-03-21T22:11:24.976Z,7.00
2019-03-21T22:13:55.339Z,9.50
2019-03-21T22:16:25.805Z,9.00
2019-03-21T22:18:55.798Z,8.00
2019-03-21T22:21:25.914Z,6.50
2019-03-21T22:23:56.284Z,8.00
2019-03-21T22:26:29.841Z,7.00
2019-03-21T22:28:59.185Z,6.50
2019-03-21T22:31:29.676Z,9.00
2019-03-21T22:33:59.970Z,7.25
2019-03-21T22:36:30.012Z,8.00
2019-03-21T22:39:00.444Z,3.25
2019-03-21T22:41:30.589Z,6.50
2019-03-21T22:44:00.925Z,4.50
2019-03-21T22:46:31.056Z,6.00
2019-03-21T22:49:01.366Z,4.00
2019-03-21T22:51:31.568Z,3.00
2019-03-21T22:54:01.832Z,4.00
2019-03-21T22:56:40.704Z,1.00
2019-03-21T22:59:03.979Z,3.25
2019-03-21T23:01:34.341Z,3.25
2019-03-21T23:04:04.625Z,3.00
2019-03-21T23:06:34.775Z,4.00
2019-03-21T23:09:07.531Z,6.25
2019-03-21T23:11:37.884Z,5.50
2019-03-21T23:14:08.080Z,5.00
2019-03-21T23:16:39.540Z,6.00
2019-03-21T23:19:10.761Z,0.00
2019-03-21T23:21:41.590Z,2.50
2019-03-21T23:24:11.792Z,4.00
2019-03-21T23:26:52.498Z,3.75
2019-03-21T23:29:14.327Z,4.00
2019-03-21T23:31:45.181Z,1.00
2019-03-21T23:34:15.996Z,4.25
2019-03-21T23:36:46.832Z,3.50
2019-03-21T23:39:17.189Z,4.50
2019-03-21T23:41:47.291Z,4.50
2019-03-21T23:44:17.627Z,3.00
2019-03-21T23:46:47.734Z,3.50
2019-03-21T23:49:18.060Z,5.00
2019-03-21T23:51:48.186Z,3.50
2019-03-21T23:54:18.999Z,4.00
2019-03-21T23:56:49.325Z,4.00
2019-03-21T23:59:19.565Z,3.25
